sensor_id;sensor_type;location;lat;lon;timestamp;temperature;humidity
32476;DHT22;18929;48.008;10.882;2022-11-20T00:01:13;6.90;99.90
32476;DHT22;18929;48.008;10.882;2022-11-20T00:03:40;7.10;99.90
32476;DHT22;18929;48.008;10.882;2022-11-20T00:06:09;7.20;99.90
32476;DHT22;18929;48.008;10.882;2022-11-20T00:08:36;7.10;99.90
32476;DHT22;18929;48.008;10.882;2022-11-20T00:11:04;7.20;99.90
32476;DHT22;18929;48.008;10.882;2022-11-20T00:13:34;7.00;99.90
32476;DHT22;18929;48.008;10.882;2022-11-20T00:16:02;7.00;99.90
32476;DHT22;18929;48.008;10.882;2022-11-20T00:18:30;7.10;99.90
32476;DHT22;18929;48.008;10.882;2022-11-20T00:21:01;7.20;99.90
32476;DHT22;18929;48.008;10.882;2022-11-20T00:23:28;7.30;99.90
32476;DHT22;18929;48.008;10.882;2022-11-20T00:25:55;7.10;99.90
32476;DHT22;18929;48.008;10.882;2022-11-20T00:28:22;7.00;99.90
32476;DHT22;18929;48.008;10.882;2022-11-20T00:30:50;7.20;99.90
32476;DHT22;18929;48.008;10.882;2022-11-20T00:33:17;7.30;99.90
32476;DHT22;18929;48.008;10.882;2022-11-20T00:35:44;7.40;99.90
32476;DHT22;18929;48.008;10.882;2022-11-20T00:38:11;7.40;99.90
32476;DHT22;18929;48.008;10.882;2022-11-20T00:40:38;7.40;99.90
32476;DHT22;18929;48.008;10.882;2022-11-20T00:43:05;7.30;99.90
32476;DHT22;18929;48.008;10.882;2022-11-20T00:45:32;7.30;99.90
32476;DHT22;18929;48.008;10.882;2022-11-20T00:48:00;7.30;99.90
32476;DHT22;18929;48.008;10.882;2022-11-20T00:50:27;7.30;99.90
32476;DHT22;18929;48.008;10.882;2022-11-20T00:52:54;7.10;99.90
32476;DHT22;18929;48.008;10.882;2022-11-20T00:55:21;7.20;99.90
32476;DHT22;18929;48.008;10.882;2022-11-20T00:57:48;7.50;99.90
32476;DHT22;18929;48.008;10.882;2022-11-20T01:00:15;7.40;99.90
32476;DHT22;18929;48.008;10.882;2022-11-20T01:02:42;7.30;99.90
32476;DHT22;18929;48.008;10.882;2022-11-20T01:05:10;7.00;99.90
32476;DHT22;18929;48.008;10.882;2022-11-20T01:07:38;7.10;99.90
32476;DHT22;18929;48.008;10.882;2022-11-20T01:10:06;7.00;99.90
32476;DHT22;18929;48.008;10.882;2022-11-20T01:12:33;7.00;99.90
32476;DHT22;18929;48.008;10.882;2022-11-20T01:15:00;6.90;99.90
32476;DHT22;18929;48.008;10.882;2022-11-20T01:17:27;7.10;99.90
32476;DHT22;18929;48.008;10.882;2022-11-20T01:19:54;6.90;99.90
32476;DHT22;18929;48.008;10.882;2022-11-20T01:22:22;6.90;99.90
32476;DHT22;18929;48.008;10.882;2022-11-20T01:24:49;7.00;99.90
32476;DHT22;18929;48.008;10.882;2022-11-20T01:27:16;7.30;99.90
32476;DHT22;18929;48.008;10.882;2022-11-20T01:29:43;7.10;99.90
32476;DHT22;18929;48.008;10.882;2022-11-20T01:32:10;7.10;99.90
32476;DHT22;18929;48.008;10.882;2022-11-20T01:34:37;7.00;99.90
32476;DHT22;18929;48.008;10.882;2022-11-20T01:37:04;7.10;99.90
32476;DHT22;18929;48.008;10.882;2022-11-20T01:39:32;7.00;99.90
32476;DHT22;18929;48.008;10.882;2022-11-20T01:41:59;7.10;99.90
32476;DHT22;18929;48.008;10.882;2022-11-20T01:44:51;7.10;99.90
32476;DHT22;18929;48.008;10.882;2022-11-20T01:47:23;7.20;99.90
32476;DHT22;18929;48.008;10.882;2022-11-20T01:49:55;7.30;99.90
32476;DHT22;18929;48.008;10.882;2022-11-20T01:52:26;7.40;99.90
32476;DHT22;18929;48.008;10.882;2022-11-20T01:54:58;7.40;99.90
32476;DHT22;18929;48.008;10.882;2022-11-20T01:57:28;7.40;99.90
32476;DHT22;18929;48.008;10.882;2022-11-20T02:00:00;7.40;99.90
32476;DHT22;18929;48.008;10.882;2022-11-20T02:02:28;7.40;99.90
32476;DHT22;18929;48.008;10.882;2022-11-20T02:04:57;7.10;99.90
32476;DHT22;18929;48.008;10.882;2022-11-20T02:07:27;7.20;99.90
32476;DHT22;18929;48.008;10.882;2022-11-20T02:09:55;7.30;99.90
32476;DHT22;18929;48.008;10.882;2022-11-20T02:12:22;7.20;99.90
32476;DHT22;18929;48.008;10.882;2022-11-20T02:15:19;7.10;99.90
32476;DHT22;18929;48.008;10.882;2022-11-20T02:17:46;7.10;99.90
32476;DHT22;18929;48.008;10.882;2022-11-20T02:20:13;7.00;99.90
32476;DHT22;18929;48.008;10.882;2022-11-20T02:22:47;7.00;99.90
32476;DHT22;18929;48.008;10.882;2022-11-20T02:25:17;7.10;99.90
32476;DHT22;18929;48.008;10.882;2022-11-20T02:27:44;7.00;99.90
32476;DHT22;18929;48.008;10.882;2022-11-20T02:30:11;7.00;99.90
32476;DHT22;18929;48.008;10.882;2022-11-20T02:32:39;6.70;99.90
32476;DHT22;18929;48.008;10.882;2022-11-20T02:35:07;6.80;99.90
32476;DHT22;18929;48.008;10.882;2022-11-20T02:37:37;7.00;99.90
32476;DHT22;18929;48.008;10.882;2022-11-20T02:40:06;7.00;99.90
32476;DHT22;18929;48.008;10.882;2022-11-20T02:42:35;7.00;99.90
32476;DHT22;18929;48.008;10.882;2022-11-20T02:45:02;7.00;99.90
32476;DHT22;18929;48.008;10.882;2022-11-20T02:47:30;6.80;99.90
32476;DHT22;18929;48.008;10.882;2022-11-20T02:49:58;6.80;99.90
32476;DHT22;18929;48.008;10.882;2022-11-20T02:52:25;6.80;99.90
32476;DHT22;18929;48.008;10.882;2022-11-20T02:54:52;6.80;99.90
32476;DHT22;18929;48.008;10.882;2022-11-20T02:57:19;6.60;99.90
32476;DHT22;18929;48.008;10.882;2022-11-20T02:59:48;6.50;99.90
32476;DHT22;18929;48.008;10.882;2022-11-20T03:02:15;6.60;99.90
32476;DHT22;18929;48.008;10.882;2022-11-20T03:04:42;6.70;99.90
32476;DHT22;18929;48.008;10.882;2022-11-20T03:07:09;6.70;99.90
32476;DHT22;18929;48.008;10.882;2022-11-20T03:09:36;6.80;99.90
32476;DHT22;18929;48.008;10.882;2022-11-20T03:12:04;6.90;99.90
32476;DHT22;18929;48.008;10.882;2022-11-20T03:14:31;6.90;99.90
32476;DHT22;18929;48.008;10.882;2022-11-20T03:16:59;7.00;99.90
32476;DHT22;18929;48.008;10.882;2022-11-20T03:19:26;6.90;99.90
32476;DHT22;18929;48.008;10.882;2022-11-20T03:21:53;6.90;99.90
32476;DHT22;18929;48.008;10.882;2022-11-20T03:24:20;6.80;99.90
32476;DHT22;18929;48.008;10.882;2022-11-20T03:26:47;6.50;99.90
32476;DHT22;18929;48.008;10.882;2022-11-20T03:29:14;6.50;99.90
32476;DHT22;18929;48.008;10.882;2022-11-20T03:31:41;6.70;99.90
32476;DHT22;18929;48.008;10.882;2022-11-20T03:34:11;6.80;99.90
32476;DHT22;18929;48.008;10.882;2022-11-20T03:36:38;6.70;99.90
32476;DHT22;18929;48.008;10.882;2022-11-20T03:39:06;6.70;99.90
32476;DHT22;18929;48.008;10.882;2022-11-20T03:41:37;6.80;99.90
32476;DHT22;18929;48.008;10.882;2022-11-20T03:44:06;6.90;99.90
32476;DHT22;18929;48.008;10.882;2022-11-20T03:46:33;6.70;99.90
32476;DHT22;18929;48.008;10.882;2022-11-20T03:49:00;6.70;99.90
32476;DHT22;18929;48.008;10.882;2022-11-20T03:51:30;6.50;99.90
32476;DHT22;18929;48.008;10.882;2022-11-20T03:54:00;6.40;99.90
32476;DHT22;18929;48.008;10.882;2022-11-20T03:56:28;6.40;99.90
32476;DHT22;18929;48.008;10.882;2022-11-20T03:58:56;6.30;99.90
32476;DHT22;18929;48.008;10.882;2022-11-20T04:01:24;6.40;99.90
32476;DHT22;18929;48.008;10.882;2022-11-20T04:03:53;6.70;99.90
32476;DHT22;18929;48.008;10.882;2022-11-20T04:06:22;6.60;99.90
32476;DHT22;18929;48.008;10.882;2022-11-20T04:08:53;6.50;99.90
32476;DHT22;18929;48.008;10.882;2022-11-20T04:11:23;6.30;99.90
32476;DHT22;18929;48.008;10.882;2022-11-20T04:13:51;6.60;99.90
32476;DHT22;18929;48.008;10.882;2022-11-20T04:16:19;6.80;99.90
32476;DHT22;18929;48.008;10.882;2022-11-20T04:18:46;6.70;99.90
32476;DHT22;18929;48.008;10.882;2022-11-20T04:21:13;6.60;99.90
32476;DHT22;18929;48.008;10.882;2022-11-20T04:23:40;6.80;99.90
32476;DHT22;18929;48.008;10.882;2022-11-20T04:26:11;6.70;99.90
32476;DHT22;18929;48.008;10.882;2022-11-20T04:28:39;6.60;99.90
32476;DHT22;18929;48.008;10.882;2022-11-20T04:31:07;6.50;99.90
32476;DHT22;18929;48.008;10.882;2022-11-20T04:33:35;6.50;99.90
32476;DHT22;18929;48.008;10.882;2022-11-20T04:36:04;6.50;99.90
32476;DHT22;18929;48.008;10.882;2022-11-20T04:38:32;6.50;99.90
32476;DHT22;18929;48.008;10.882;2022-11-20T04:40:59;6.40;99.90
32476;DHT22;18929;48.008;10.882;2022-11-20T04:43:28;6.30;99.90
32476;DHT22;18929;48.008;10.882;2022-11-20T04:45:56;6.40;99.90
32476;DHT22;18929;48.008;10.882;2022-11-20T04:48:25;6.30;99.90
32476;DHT22;18929;48.008;10.882;2022-11-20T04:50:52;6.20;99.90
32476;DHT22;18929;48.008;10.882;2022-11-20T04:53:20;6.20;99.90
32476;DHT22;18929;48.008;10.882;2022-11-20T04:55:47;6.30;99.90
32476;DHT22;18929;48.008;10.882;2022-11-20T04:58:16;6.40;99.90
32476;DHT22;18929;48.008;10.882;2022-11-20T05:00:44;6.20;99.90
32476;DHT22;18929;48.008;10.882;2022-11-20T05:03:11;6.20;99.90
32476;DHT22;18929;48.008;10.882;2022-11-20T05:05:38;6.30;99.90
32476;DHT22;18929;48.008;10.882;2022-11-20T05:08:05;6.20;99.90
32476;DHT22;18929;48.008;10.882;2022-11-20T05:10:32;6.30;99.90
32476;DHT22;18929;48.008;10.882;2022-11-20T05:12:59;6.20;99.90
32476;DHT22;18929;48.008;10.882;2022-11-20T05:15:26;6.20;99.90
32476;DHT22;18929;48.008;10.882;2022-11-20T05:17:54;6.30;99.90
32476;DHT22;18929;48.008;10.882;2022-11-20T05:20:21;6.40;99.90
32476;DHT22;18929;48.008;10.882;2022-11-20T05:22:48;6.40;99.90
32476;DHT22;18929;48.008;10.882;2022-11-20T05:25:15;6.50;99.90
32476;DHT22;18929;48.008;10.882;2022-11-20T05:27:42;6.50;99.90
32476;DHT22;18929;48.008;10.882;2022-11-20T05:30:11;6.30;99.90
32476;DHT22;18929;48.008;10.882;2022-11-20T05:32:38;6.10;99.90
32476;DHT22;18929;48.008;10.882;2022-11-20T05:35:07;6.20;99.90
32476;DHT22;18929;48.008;10.882;2022-11-20T05:37:34;6.20;99.90
32476;DHT22;18929;48.008;10.882;2022-11-20T05:40:01;6.20;99.90
32476;DHT22;18929;48.008;10.882;2022-11-20T05:42:30;6.30;99.90
32476;DHT22;18929;48.008;10.882;2022-11-20T05:44:57;6.40;99.90
32476;DHT22;18929;48.008;10.882;2022-11-20T05:47:24;6.40;99.90
32476;DHT22;18929;48.008;10.882;2022-11-20T05:49:51;6.40;99.90
32476;DHT22;18929;48.008;10.882;2022-11-20T05:52:20;6.50;99.90
32476;DHT22;18929;48.008;10.882;2022-11-20T05:54:47;6.50;99.90
32476;DHT22;18929;48.008;10.882;2022-11-20T05:57:14;6.30;99.90
32476;DHT22;18929;48.008;10.882;2022-11-20T05:59:41;6.20;99.90
32476;DHT22;18929;48.008;10.882;2022-11-20T06:02:08;6.30;99.90
32476;DHT22;18929;48.008;10.882;2022-11-20T06:04:35;6.30;99.90
32476;DHT22;18929;48.008;10.882;2022-11-20T06:07:02;6.30;99.90
32476;DHT22;18929;48.008;10.882;2022-11-20T06:09:30;6.30;99.90
32476;DHT22;18929;48.008;10.882;2022-11-20T06:11:57;6.30;99.90
32476;DHT22;18929;48.008;10.882;2022-11-20T06:14:24;6.40;99.90
32476;DHT22;18929;48.008;10.882;2022-11-20T06:16:51;6.40;99.90
32476;DHT22;18929;48.008;10.882;2022-11-20T06:19:18;6.30;99.90
32476;DHT22;18929;48.008;10.882;2022-11-20T06:21:47;6.20;99.90
32476;DHT22;18929;48.008;10.882;2022-11-20T06:24:15;6.20;99.90
32476;DHT22;18929;48.008;10.882;2022-11-20T06:26:44;6.20;99.90
32476;DHT22;18929;48.008;10.882;2022-11-20T06:29:11;6.30;99.90
32476;DHT22;18929;48.008;10.882;2022-11-20T06:31:38;6.30;99.90
32476;DHT22;18929;48.008;10.882;2022-11-20T06:34:05;6.10;99.90
32476;DHT22;18929;48.008;10.882;2022-11-20T06:36:33;6.10;99.90
32476;DHT22;18929;48.008;10.882;2022-11-20T06:39:01;6.10;99.90
32476;DHT22;18929;48.008;10.882;2022-11-20T06:41:28;6.20;99.90
32476;DHT22;18929;48.008;10.882;2022-11-20T06:43:56;6.30;99.90
32476;DHT22;18929;48.008;10.882;2022-11-20T06:46:23;6.20;99.90
32476;DHT22;18929;48.008;10.882;2022-11-20T06:48:50;6.20;99.90
32476;DHT22;18929;48.008;10.882;2022-11-20T06:51:21;6.30;99.90
32476;DHT22;18929;48.008;10.882;2022-11-20T06:53:48;6.10;99.90
32476;DHT22;18929;48.008;10.882;2022-11-20T06:56:15;6.10;99.90
32476;DHT22;18929;48.008;10.882;2022-11-20T06:58:42;6.20;99.90
32476;DHT22;18929;48.008;10.882;2022-11-20T07:01:12;6.20;99.90
32476;DHT22;18929;48.008;10.882;2022-11-20T07:03:40;6.10;99.90
32476;DHT22;18929;48.008;10.882;2022-11-20T07:06:08;6.10;99.90
32476;DHT22;18929;48.008;10.882;2022-11-20T07:08:36;6.10;99.90
32476;DHT22;18929;48.008;10.882;2022-11-20T07:11:05;6.20;99.90
32476;DHT22;18929;48.008;10.882;2022-11-20T07:13:33;6.10;99.90
32476;DHT22;18929;48.008;10.882;2022-11-20T07:16:01;6.10;99.90
32476;DHT22;18929;48.008;10.882;2022-11-20T07:18:30;6.10;99.90
32476;DHT22;18929;48.008;10.882;2022-11-20T07:21:00;6.10;99.90
32476;DHT22;18929;48.008;10.882;2022-11-20T07:23:28;6.00;99.90
32476;DHT22;18929;48.008;10.882;2022-11-20T07:25:55;6.00;99.90
32476;DHT22;18929;48.008;10.882;2022-11-20T07:28:22;6.20;99.90
32476;DHT22;18929;48.008;10.882;2022-11-20T07:30:53;6.10;99.90
32476;DHT22;18929;48.008;10.882;2022-11-20T07:33:20;6.30;99.90
32476;DHT22;18929;48.008;10.882;2022-11-20T07:35:48;6.30;99.90
32476;DHT22;18929;48.008;10.882;2022-11-20T07:38:15;6.10;99.90
32476;DHT22;18929;48.008;10.882;2022-11-20T07:40:42;6.30;99.90
32476;DHT22;18929;48.008;10.882;2022-11-20T07:43:09;6.20;99.90
32476;DHT22;18929;48.008;10.882;2022-11-20T07:45:36;6.30;99.90
32476;DHT22;18929;48.008;10.882;2022-11-20T07:48:04;6.30;99.90
32476;DHT22;18929;48.008;10.882;2022-11-20T07:50:31;6.00;99.90
32476;DHT22;18929;48.008;10.882;2022-11-20T07:53:03;6.10;99.90
32476;DHT22;18929;48.008;10.882;2022-11-20T07:55:31;6.00;99.90
32476;DHT22;18929;48.008;10.882;2022-11-20T07:57:58;6.00;99.90
32476;DHT22;18929;48.008;10.882;2022-11-20T08:00:26;6.20;99.90
32476;DHT22;18929;48.008;10.882;2022-11-20T08:02:53;6.20;99.90
32476;DHT22;18929;48.008;10.882;2022-11-20T08:05:20;6.20;99.90
32476;DHT22;18929;48.008;10.882;2022-11-20T08:07:47;6.30;99.90
32476;DHT22;18929;48.008;10.882;2022-11-20T08:10:16;6.30;99.90
32476;DHT22;18929;48.008;10.882;2022-11-20T08:12:45;6.30;99.90
32476;DHT22;18929;48.008;10.882;2022-11-20T08:15:30;6.30;99.90
32476;DHT22;18929;48.008;10.882;2022-11-20T08:18:04;6.10;99.90
32476;DHT22;18929;48.008;10.882;2022-11-20T08:20:32;6.20;99.90
32476;DHT22;18929;48.008;10.882;2022-11-20T08:23:00;6.30;99.90
32476;DHT22;18929;48.008;10.882;2022-11-20T08:25:29;6.40;99.90
32476;DHT22;18929;48.008;10.882;2022-11-20T08:27:59;6.50;99.90
32476;DHT22;18929;48.008;10.882;2022-11-20T08:30:27;6.00;99.90
32476;DHT22;18929;48.008;10.882;2022-11-20T08:32:54;6.10;99.90
32476;DHT22;18929;48.008;10.882;2022-11-20T08:35:21;6.30;99.90
32476;DHT22;18929;48.008;10.882;2022-11-20T08:37:48;6.40;99.90
32476;DHT22;18929;48.008;10.882;2022-11-20T08:40:16;6.30;99.90
32476;DHT22;18929;48.008;10.882;2022-11-20T08:42:48;6.10;99.90
32476;DHT22;18929;48.008;10.882;2022-11-20T08:45:49;6.30;99.90
32476;DHT22;18929;48.008;10.882;2022-11-20T08:48:16;6.30;99.90
32476;DHT22;18929;48.008;10.882;2022-11-20T08:50:43;6.30;99.90
32476;DHT22;18929;48.008;10.882;2022-11-20T08:53:10;6.50;99.90
32476;DHT22;18929;48.008;10.882;2022-11-20T08:55:37;6.30;99.90
32476;DHT22;18929;48.008;10.882;2022-11-20T08:58:06;6.30;99.90
32476;DHT22;18929;48.008;10.882;2022-11-20T09:00:34;6.20;99.90
32476;DHT22;18929;48.008;10.882;2022-11-20T09:03:01;6.30;99.90
32476;DHT22;18929;48.008;10.882;2022-11-20T09:05:28;6.10;99.90
32476;DHT22;18929;48.008;10.882;2022-11-20T09:07:56;6.20;99.90
32476;DHT22;18929;48.008;10.882;2022-11-20T09:10:23;6.40;99.90
32476;DHT22;18929;48.008;10.882;2022-11-20T09:12:51;6.60;99.90
32476;DHT22;18929;48.008;10.882;2022-11-20T09:15:20;6.80;99.90
32476;DHT22;18929;48.008;10.882;2022-11-20T09:17:51;6.70;99.90
32476;DHT22;18929;48.008;10.882;2022-11-20T09:20:18;6.50;99.90
32476;DHT22;18929;48.008;10.882;2022-11-20T09:22:45;6.60;99.90
32476;DHT22;18929;48.008;10.882;2022-11-20T09:25:12;6.50;99.90
32476;DHT22;18929;48.008;10.882;2022-11-20T09:27:39;6.40;99.90
32476;DHT22;18929;48.008;10.882;2022-11-20T09:30:09;6.30;99.90
32476;DHT22;18929;48.008;10.882;2022-11-20T09:32:40;6.40;99.90
32476;DHT22;18929;48.008;10.882;2022-11-20T09:35:08;6.60;99.90
32476;DHT22;18929;48.008;10.882;2022-11-20T09:37:36;6.60;99.90
32476;DHT22;18929;48.008;10.882;2022-11-20T09:40:03;6.40;99.90
32476;DHT22;18929;48.008;10.882;2022-11-20T09:42:43;6.20;99.90
32476;DHT22;18929;48.008;10.882;2022-11-20T09:45:24;6.30;99.90
32476;DHT22;18929;48.008;10.882;2022-11-20T09:50:55;6.60;99.90
32476;DHT22;18929;48.008;10.882;2022-11-20T09:53:31;6.70;99.90
32476;DHT22;18929;48.008;10.882;2022-11-20T09:56:02;6.60;99.90
32476;DHT22;18929;48.008;10.882;2022-11-20T09:58:33;6.70;99.90
32476;DHT22;18929;48.008;10.882;2022-11-20T10:01:09;6.80;99.90
32476;DHT22;18929;48.008;10.882;2022-11-20T10:03:44;6.50;99.90
32476;DHT22;18929;48.008;10.882;2022-11-20T10:06:16;6.60;99.90
32476;DHT22;18929;48.008;10.882;2022-11-20T10:08:48;6.70;99.90
32476;DHT22;18929;48.008;10.882;2022-11-20T10:11:24;6.70;99.90
32476;DHT22;18929;48.008;10.882;2022-11-20T10:14:02;6.70;99.90
32476;DHT22;18929;48.008;10.882;2022-11-20T10:16:38;6.80;99.90
32476;DHT22;18929;48.008;10.882;2022-11-20T10:19:21;6.70;99.90
32476;DHT22;18929;48.008;10.882;2022-11-20T10:21:58;6.60;99.90
32476;DHT22;18929;48.008;10.882;2022-11-20T10:24:48;6.50;99.90
32476;DHT22;18929;48.008;10.882;2022-11-20T10:30:42;6.90;99.90
32476;DHT22;18929;48.008;10.882;2022-11-20T10:33:15;6.90;99.90
32476;DHT22;18929;48.008;10.882;2022-11-20T10:35:47;6.80;99.90
32476;DHT22;18929;48.008;10.882;2022-11-20T10:38:19;6.50;99.90
32476;DHT22;18929;48.008;10.882;2022-11-20T10:40:51;6.70;99.90
32476;DHT22;18929;48.008;10.882;2022-11-20T10:43:26;6.60;99.90
32476;DHT22;18929;48.008;10.882;2022-11-20T10:45:58;6.80;99.90
32476;DHT22;18929;48.008;10.882;2022-11-20T10:48:26;7.00;99.90
32476;DHT22;18929;48.008;10.882;2022-11-20T10:51:09;6.90;99.90
32476;DHT22;18929;48.008;10.882;2022-11-20T10:53:45;6.60;99.90
32476;DHT22;18929;48.008;10.882;2022-11-20T10:56:19;6.60;99.90
32476;DHT22;18929;48.008;10.882;2022-11-20T10:59:00;6.70;99.90
32476;DHT22;18929;48.008;10.882;2022-11-20T11:01:29;6.80;99.90
32476;DHT22;18929;48.008;10.882;2022-11-20T11:03:57;6.70;99.90
32476;DHT22;18929;48.008;10.882;2022-11-20T11:06:31;7.10;99.90
32476;DHT22;18929;48.008;10.882;2022-11-20T11:09:04;7.10;99.90
32476;DHT22;18929;48.008;10.882;2022-11-20T11:11:33;7.10;99.90
32476;DHT22;18929;48.008;10.882;2022-11-20T11:14:07;7.40;99.90
32476;DHT22;18929;48.008;10.882;2022-11-20T11:16:34;7.00;99.90
32476;DHT22;18929;48.008;10.882;2022-11-20T11:19:05;6.90;99.90
32476;DHT22;18929;48.008;10.882;2022-11-20T11:21:34;6.80;99.90
32476;DHT22;18929;48.008;10.882;2022-11-20T11:24:19;6.90;99.90
32476;DHT22;18929;48.008;10.882;2022-11-20T11:26:52;6.80;99.90
32476;DHT22;18929;48.008;10.882;2022-11-20T11:29:19;6.70;99.90
32476;DHT22;18929;48.008;10.882;2022-11-20T11:31:46;6.70;99.90
32476;DHT22;18929;48.008;10.882;2022-11-20T11:34:14;6.90;99.90
32476;DHT22;18929;48.008;10.882;2022-11-20T11:36:50;7.30;99.90
32476;DHT22;18929;48.008;10.882;2022-11-20T11:39:20;7.30;99.90
32476;DHT22;18929;48.008;10.882;2022-11-20T11:41:47;7.30;99.90
32476;DHT22;18929;48.008;10.882;2022-11-20T11:44:17;7.20;99.90
32476;DHT22;18929;48.008;10.882;2022-11-20T11:47:03;7.10;99.90
32476;DHT22;18929;48.008;10.882;2022-11-20T11:49:30;7.10;99.90
32476;DHT22;18929;48.008;10.882;2022-11-20T11:52:04;6.90;99.90
32476;DHT22;18929;48.008;10.882;2022-11-20T11:54:40;6.80;99.90
32476;DHT22;18929;48.008;10.882;2022-11-20T11:57:14;6.90;99.90
32476;DHT22;18929;48.008;10.882;2022-11-20T11:59:51;7.00;99.90
32476;DHT22;18929;48.008;10.882;2022-11-20T12:02:29;6.90;99.90
32476;DHT22;18929;48.008;10.882;2022-11-20T12:05:00;6.70;99.90
32476;DHT22;18929;48.008;10.882;2022-11-20T12:07:39;6.80;99.90
32476;DHT22;18929;48.008;10.882;2022-11-20T12:10:15;6.90;99.90
32476;DHT22;18929;48.008;10.882;2022-11-20T12:12:46;7.00;99.90
32476;DHT22;18929;48.008;10.882;2022-11-20T12:15:23;7.10;99.90
32476;DHT22;18929;48.008;10.882;2022-11-20T12:17:52;7.20;99.90
32476;DHT22;18929;48.008;10.882;2022-11-20T12:20:20;7.20;99.90
32476;DHT22;18929;48.008;10.882;2022-11-20T12:22:55;7.20;99.90
32476;DHT22;18929;48.008;10.882;2022-11-20T12:25:24;7.20;99.90
32476;DHT22;18929;48.008;10.882;2022-11-20T12:28:24;7.00;99.90
32476;DHT22;18929;48.008;10.882;2022-11-20T12:31:03;7.20;99.90
32476;DHT22;18929;48.008;10.882;2022-11-20T12:33:47;7.20;99.90
32476;DHT22;18929;48.008;10.882;2022-11-20T12:36:26;7.30;99.90
32476;DHT22;18929;48.008;10.882;2022-11-20T12:42:00;7.20;99.90
32476;DHT22;18929;48.008;10.882;2022-11-20T12:45:10;7.60;99.90
32476;DHT22;18929;48.008;10.882;2022-11-20T12:48:02;7.30;99.90
32476;DHT22;18929;48.008;10.882;2022-11-20T12:50:42;7.20;99.90
32476;DHT22;18929;48.008;10.882;2022-11-20T12:53:17;7.20;99.90
32476;DHT22;18929;48.008;10.882;2022-11-20T12:55:58;7.30;99.90
32476;DHT22;18929;48.008;10.882;2022-11-20T12:58:36;7.60;99.90
32476;DHT22;18929;48.008;10.882;2022-11-20T13:01:15;7.60;99.90
32476;DHT22;18929;48.008;10.882;2022-11-20T13:04:11;7.50;99.90
32476;DHT22;18929;48.008;10.882;2022-11-20T13:06:39;7.40;99.90
32476;DHT22;18929;48.008;10.882;2022-11-20T13:09:09;7.20;99.90
32476;DHT22;18929;48.008;10.882;2022-11-20T13:11:44;7.10;99.90
32476;DHT22;18929;48.008;10.882;2022-11-20T13:14:24;7.10;99.90
32476;DHT22;18929;48.008;10.882;2022-11-20T13:16:57;7.00;99.90
32476;DHT22;18929;48.008;10.882;2022-11-20T13:19:26;7.20;99.90
32476;DHT22;18929;48.008;10.882;2022-11-20T13:21:58;7.10;99.90
32476;DHT22;18929;48.008;10.882;2022-11-20T13:24:27;7.10;99.90
32476;DHT22;18929;48.008;10.882;2022-11-20T13:27:20;6.90;99.90
32476;DHT22;18929;48.008;10.882;2022-11-20T13:30:00;7.00;99.90
32476;DHT22;18929;48.008;10.882;2022-11-20T13:32:28;7.10;99.90
32476;DHT22;18929;48.008;10.882;2022-11-20T13:34:59;7.10;99.90
32476;DHT22;18929;48.008;10.882;2022-11-20T13:37:30;7.20;99.90
32476;DHT22;18929;48.008;10.882;2022-11-20T13:40:21;7.20;99.90
32476;DHT22;18929;48.008;10.882;2022-11-20T13:43:01;7.10;99.90
32476;DHT22;18929;48.008;10.882;2022-11-20T13:45:31;7.00;99.90
32476;DHT22;18929;48.008;10.882;2022-11-20T13:48:02;6.70;99.90
32476;DHT22;18929;48.008;10.882;2022-11-20T13:50:51;6.50;99.90
32476;DHT22;18929;48.008;10.882;2022-11-20T13:53:36;6.70;99.90
32476;DHT22;18929;48.008;10.882;2022-11-20T13:56:17;6.70;99.90
32476;DHT22;18929;48.008;10.882;2022-11-20T13:58:56;6.90;99.90
32476;DHT22;18929;48.008;10.882;2022-11-20T14:01:28;6.90;99.90
32476;DHT22;18929;48.008;10.882;2022-11-20T14:03:57;7.00;99.90
32476;DHT22;18929;48.008;10.882;2022-11-20T14:06:26;7.30;99.90
32476;DHT22;18929;48.008;10.882;2022-11-20T14:08:54;7.30;99.90
32476;DHT22;18929;48.008;10.882;2022-11-20T14:11:23;7.40;99.90
32476;DHT22;18929;48.008;10.882;2022-11-20T14:14:00;7.40;99.90
32476;DHT22;18929;48.008;10.882;2022-11-20T14:16:30;7.20;99.90
32476;DHT22;18929;48.008;10.882;2022-11-20T14:19:23;7.10;99.90
32476;DHT22;18929;48.008;10.882;2022-11-20T14:21:54;7.30;99.90
32476;DHT22;18929;48.008;10.882;2022-11-20T14:24:22;7.30;99.90
32476;DHT22;18929;48.008;10.882;2022-11-20T14:26:50;7.30;99.90
32476;DHT22;18929;48.008;10.882;2022-11-20T14:29:19;7.20;99.90
32476;DHT22;18929;48.008;10.882;2022-11-20T14:31:48;7.00;99.90
32476;DHT22;18929;48.008;10.882;2022-11-20T14:34:20;7.10;99.90
32476;DHT22;18929;48.008;10.882;2022-11-20T14:36:55;7.10;99.90
32476;DHT22;18929;48.008;10.882;2022-11-20T14:39:29;7.20;99.90
32476;DHT22;18929;48.008;10.882;2022-11-20T14:41:57;7.30;99.90
32476;DHT22;18929;48.008;10.882;2022-11-20T14:44:27;7.70;99.90
32476;DHT22;18929;48.008;10.882;2022-11-20T14:46:55;7.50;99.90
32476;DHT22;18929;48.008;10.882;2022-11-20T14:49:22;7.20;99.90
32476;DHT22;18929;48.008;10.882;2022-11-20T14:51:58;7.30;99.90
32476;DHT22;18929;48.008;10.882;2022-11-20T14:54:27;7.50;99.90
32476;DHT22;18929;48.008;10.882;2022-11-20T14:56:57;7.50;99.90
32476;DHT22;18929;48.008;10.882;2022-11-20T14:59:25;7.40;99.90
32476;DHT22;18929;48.008;10.882;2022-11-20T15:01:56;7.20;99.90
32476;DHT22;18929;48.008;10.882;2022-11-20T15:04:24;7.40;99.90
32476;DHT22;18929;48.008;10.882;2022-11-20T15:06:53;7.10;99.90
32476;DHT22;18929;48.008;10.882;2022-11-20T15:09:21;7.00;99.90
32476;DHT22;18929;48.008;10.882;2022-11-20T15:11:55;7.10;99.90
32476;DHT22;18929;48.008;10.882;2022-11-20T15:14:23;7.00;99.90
32476;DHT22;18929;48.008;10.882;2022-11-20T15:16:51;6.90;99.90
32476;DHT22;18929;48.008;10.882;2022-11-20T15:19:20;7.10;99.90
32476;DHT22;18929;48.008;10.882;2022-11-20T15:21:48;7.20;99.90
32476;DHT22;18929;48.008;10.882;2022-11-20T15:24:15;7.00;99.90
32476;DHT22;18929;48.008;10.882;2022-11-20T15:26:42;7.10;99.90
32476;DHT22;18929;48.008;10.882;2022-11-20T15:29:13;6.80;99.90
32476;DHT22;18929;48.008;10.882;2022-11-20T15:31:40;6.90;99.90
32476;DHT22;18929;48.008;10.882;2022-11-20T15:34:11;7.10;99.90
32476;DHT22;18929;48.008;10.882;2022-11-20T15:36:39;7.00;99.90
32476;DHT22;18929;48.008;10.882;2022-11-20T15:39:06;7.10;99.90
32476;DHT22;18929;48.008;10.882;2022-11-20T15:41:34;7.00;99.90
32476;DHT22;18929;48.008;10.882;2022-11-20T15:44:02;7.20;99.90
32476;DHT22;18929;48.008;10.882;2022-11-20T15:46:32;7.20;99.90
32476;DHT22;18929;48.008;10.882;2022-11-20T15:49:04;7.30;99.90
32476;DHT22;18929;48.008;10.882;2022-11-20T15:51:33;7.40;99.90
32476;DHT22;18929;48.008;10.882;2022-11-20T15:54:03;7.40;99.90
32476;DHT22;18929;48.008;10.882;2022-11-20T15:56:35;7.50;99.90
32476;DHT22;18929;48.008;10.882;2022-11-20T15:59:03;7.40;99.90